sensor_id;sensor_type;location;lat;lon;timestamp;temperature;humidity
4647;DHT22;2336;47.822;7.564;2023-07-13T00:02:19;20.80;99.90
4647;DHT22;2336;47.822;7.564;2023-07-13T00:04:46;20.70;99.90
4647;DHT22;2336;47.822;7.564;2023-07-13T00:07:13;20.70;99.90
4647;DHT22;2336;47.822;7.564;2023-07-13T00:09:40;20.70;99.90
4647;DHT22;2336;47.822;7.564;2023-07-13T00:12:23;20.70;99.90
4647;DHT22;2336;47.822;7.564;2023-07-13T00:14:50;20.70;99.90
4647;DHT22;2336;47.822;7.564;2023-07-13T00:17:18;20.70;99.90
4647;DHT22;2336;47.822;7.564;2023-07-13T00:19:45;20.70;99.90
4647;DHT22;2336;47.822;7.564;2023-07-13T00:22:12;20.60;99.90
4647;DHT22;2336;47.822;7.564;2023-07-13T00:24:38;20.60;99.90
4647;DHT22;2336;47.822;7.564;2023-07-13T00:27:07;20.70;99.90
4647;DHT22;2336;47.822;7.564;2023-07-13T00:29:35;20.70;99.90
4647;DHT22;2336;47.822;7.564;2023-07-13T00:32:03;20.70;99.90
4647;DHT22;2336;47.822;7.564;2023-07-13T00:34:31;20.70;99.90
4647;DHT22;2336;47.822;7.564;2023-07-13T00:36:58;20.70;99.90
4647;DHT22;2336;47.822;7.564;2023-07-13T00:39:25;20.70;99.90
4647;DHT22;2336;47.822;7.564;2023-07-13T00:41:52;20.70;99.90
4647;DHT22;2336;47.822;7.564;2023-07-13T00:44:20;20.70;99.90
4647;DHT22;2336;47.822;7.564;2023-07-13T00:46:49;20.70;99.90
4647;DHT22;2336;47.822;7.564;2023-07-13T00:49:19;20.60;99.90
4647;DHT22;2336;47.822;7.564;2023-07-13T00:51:50;20.60;99.90
4647;DHT22;2336;47.822;7.564;2023-07-13T00:54:20;20.60;99.90
4647;DHT22;2336;47.822;7.564;2023-07-13T00:56:50;20.60;99.90
4647;DHT22;2336;47.822;7.564;2023-07-13T00:59:20;20.60;99.90
4647;DHT22;2336;47.822;7.564;2023-07-13T01:01:48;20.60;99.90
4647;DHT22;2336;47.822;7.564;2023-07-13T01:04:15;20.60;99.90
4647;DHT22;2336;47.822;7.564;2023-07-13T01:06:42;20.60;99.90
4647;DHT22;2336;47.822;7.564;2023-07-13T01:09:11;20.60;99.90
4647;DHT22;2336;47.822;7.564;2023-07-13T01:11:38;20.60;99.90
4647;DHT22;2336;47.822;7.564;2023-07-13T01:14:07;20.60;99.90
4647;DHT22;2336;47.822;7.564;2023-07-13T01:16:36;20.60;99.90
4647;DHT22;2336;47.822;7.564;2023-07-13T01:19:07;20.60;99.90
4647;DHT22;2336;47.822;7.564;2023-07-13T01:21:38;20.70;99.90
4647;DHT22;2336;47.822;7.564;2023-07-13T01:24:08;20.60;99.90
4647;DHT22;2336;47.822;7.564;2023-07-13T01:26:35;20.60;99.90
4647;DHT22;2336;47.822;7.564;2023-07-13T01:29:02;20.60;99.90
4647;DHT22;2336;47.822;7.564;2023-07-13T01:34:51;20.60;99.90
4647;DHT22;2336;47.822;7.564;2023-07-13T01:37:21;20.50;99.90
4647;DHT22;2336;47.822;7.564;2023-07-13T01:39:48;20.50;99.90
4647;DHT22;2336;47.822;7.564;2023-07-13T01:42:15;20.50;99.90
4647;DHT22;2336;47.822;7.564;2023-07-13T01:44:42;20.50;99.90
4647;DHT22;2336;47.822;7.564;2023-07-13T01:47:09;20.50;99.90
4647;DHT22;2336;47.822;7.564;2023-07-13T01:49:36;20.40;99.90
4647;DHT22;2336;47.822;7.564;2023-07-13T01:52:04;20.40;99.90
4647;DHT22;2336;47.822;7.564;2023-07-13T01:54:32;20.40;99.90
4647;DHT22;2336;47.822;7.564;2023-07-13T01:56:59;20.30;99.90
4647;DHT22;2336;47.822;7.564;2023-07-13T01:59:26;20.20;99.90
4647;DHT22;2336;47.822;7.564;2023-07-13T02:01:53;20.30;99.90
4647;DHT22;2336;47.822;7.564;2023-07-13T02:04:19;20.20;99.90
4647;DHT22;2336;47.822;7.564;2023-07-13T02:06:46;20.10;99.90
4647;DHT22;2336;47.822;7.564;2023-07-13T02:09:13;20.10;99.90
4647;DHT22;2336;47.822;7.564;2023-07-13T02:11:41;20.00;99.90
4647;DHT22;2336;47.822;7.564;2023-07-13T02:14:07;20.00;99.90
4647;DHT22;2336;47.822;7.564;2023-07-13T02:16:34;20.10;99.90
4647;DHT22;2336;47.822;7.564;2023-07-13T02:19:01;20.10;99.90
4647;DHT22;2336;47.822;7.564;2023-07-13T02:21:28;20.00;99.90
4647;DHT22;2336;47.822;7.564;2023-07-13T02:23:55;20.00;99.90
4647;DHT22;2336;47.822;7.564;2023-07-13T02:26:23;20.00;99.90
4647;DHT22;2336;47.822;7.564;2023-07-13T02:28:51;19.80;99.90
4647;DHT22;2336;47.822;7.564;2023-07-13T02:31:18;19.80;99.90
4647;DHT22;2336;47.822;7.564;2023-07-13T02:33:44;19.80;99.90
4647;DHT22;2336;47.822;7.564;2023-07-13T02:36:12;19.70;99.90
4647;DHT22;2336;47.822;7.564;2023-07-13T02:38:39;19.70;99.90
4647;DHT22;2336;47.822;7.564;2023-07-13T02:41:07;19.60;99.90
4647;DHT22;2336;47.822;7.564;2023-07-13T02:43:34;19.50;99.90
4647;DHT22;2336;47.822;7.564;2023-07-13T02:46:03;19.50;99.90
4647;DHT22;2336;47.822;7.564;2023-07-13T02:48:32;19.50;99.90
4647;DHT22;2336;47.822;7.564;2023-07-13T02:50:59;19.50;99.90
4647;DHT22;2336;47.822;7.564;2023-07-13T02:53:26;19.50;99.90
4647;DHT22;2336;47.822;7.564;2023-07-13T02:55:53;19.50;99.90
4647;DHT22;2336;47.822;7.564;2023-07-13T02:58:19;19.50;99.90
4647;DHT22;2336;47.822;7.564;2023-07-13T03:00:47;19.50;99.90
4647;DHT22;2336;47.822;7.564;2023-07-13T03:03:16;19.50;99.90
4647;DHT22;2336;47.822;7.564;2023-07-13T03:05:44;19.50;99.90
4647;DHT22;2336;47.822;7.564;2023-07-13T03:08:15;19.50;99.90
4647;DHT22;2336;47.822;7.564;2023-07-13T03:10:43;19.50;99.90
4647;DHT22;2336;47.822;7.564;2023-07-13T03:13:10;19.50;99.90
4647;DHT22;2336;47.822;7.564;2023-07-13T03:15:36;19.50;99.90
4647;DHT22;2336;47.822;7.564;2023-07-13T03:18:03;19.50;99.90
4647;DHT22;2336;47.822;7.564;2023-07-13T03:20:33;19.50;99.90
4647;DHT22;2336;47.822;7.564;2023-07-13T03:23:00;19.50;99.90
4647;DHT22;2336;47.822;7.564;2023-07-13T03:25:28;19.40;99.90
4647;DHT22;2336;47.822;7.564;2023-07-13T03:27:55;19.40;99.90
4647;DHT22;2336;47.822;7.564;2023-07-13T03:30:22;19.40;99.90
4647;DHT22;2336;47.822;7.564;2023-07-13T03:32:49;19.40;99.90
4647;DHT22;2336;47.822;7.564;2023-07-13T03:35:15;19.40;99.90
4647;DHT22;2336;47.822;7.564;2023-07-13T03:37:44;19.30;99.90
4647;DHT22;2336;47.822;7.564;2023-07-13T03:40:12;19.30;99.90
4647;DHT22;2336;47.822;7.564;2023-07-13T03:42:38;19.30;99.90
4647;DHT22;2336;47.822;7.564;2023-07-13T03:45:06;19.30;99.90
4647;DHT22;2336;47.822;7.564;2023-07-13T03:47:33;19.30;99.90
4647;DHT22;2336;47.822;7.564;2023-07-13T03:50:00;19.30;99.90
4647;DHT22;2336;47.822;7.564;2023-07-13T03:52:27;19.30;99.90
4647;DHT22;2336;47.822;7.564;2023-07-13T03:54:55;19.30;99.90
4647;DHT22;2336;47.822;7.564;2023-07-13T03:57:21;19.20;99.90
4647;DHT22;2336;47.822;7.564;2023-07-13T03:59:48;19.30;99.90
4647;DHT22;2336;47.822;7.564;2023-07-13T04:02:15;19.30;99.90
4647;DHT22;2336;47.822;7.564;2023-07-13T04:04:43;19.30;99.90
4647;DHT22;2336;47.822;7.564;2023-07-13T04:07:09;19.30;99.90
4647;DHT22;2336;47.822;7.564;2023-07-13T04:09:36;19.40;99.90
4647;DHT22;2336;47.822;7.564;2023-07-13T04:12:05;19.40;99.90
4647;DHT22;2336;47.822;7.564;2023-07-13T04:14:32;19.40;99.90
4647;DHT22;2336;47.822;7.564;2023-07-13T04:16:59;19.40;99.90
4647;DHT22;2336;47.822;7.564;2023-07-13T04:19:26;19.50;99.90
4647;DHT22;2336;47.822;7.564;2023-07-13T04:21:52;19.50;99.90
4647;DHT22;2336;47.822;7.564;2023-07-13T04:24:19;19.50;99.90
4647;DHT22;2336;47.822;7.564;2023-07-13T04:26:46;19.50;99.90
4647;DHT22;2336;47.822;7.564;2023-07-13T04:29:14;19.50;99.90
4647;DHT22;2336;47.822;7.564;2023-07-13T04:31:40;19.50;99.90
4647;DHT22;2336;47.822;7.564;2023-07-13T04:34:07;19.50;99.90
4647;DHT22;2336;47.822;7.564;2023-07-13T04:36:34;19.50;99.90
4647;DHT22;2336;47.822;7.564;2023-07-13T04:39:02;19.60;99.90
4647;DHT22;2336;47.822;7.564;2023-07-13T04:41:29;19.50;99.90
4647;DHT22;2336;47.822;7.564;2023-07-13T04:43:56;19.60;99.90
4647;DHT22;2336;47.822;7.564;2023-07-13T04:46:24;19.60;99.90
4647;DHT22;2336;47.822;7.564;2023-07-13T04:48:51;19.60;99.90
4647;DHT22;2336;47.822;7.564;2023-07-13T04:51:18;19.60;99.90
4647;DHT22;2336;47.822;7.564;2023-07-13T04:53:45;19.70;99.90
4647;DHT22;2336;47.822;7.564;2023-07-13T04:56:12;19.70;99.90
4647;DHT22;2336;47.822;7.564;2023-07-13T04:58:38;19.70;99.90
4647;DHT22;2336;47.822;7.564;2023-07-13T05:01:06;19.70;99.90
4647;DHT22;2336;47.822;7.564;2023-07-13T05:03:35;19.70;99.90
4647;DHT22;2336;47.822;7.564;2023-07-13T05:06:05;19.70;99.90
4647;DHT22;2336;47.822;7.564;2023-07-13T05:08:32;19.70;99.90
4647;DHT22;2336;47.822;7.564;2023-07-13T05:10:59;19.70;99.90
4647;DHT22;2336;47.822;7.564;2023-07-13T05:13:26;19.70;99.90
4647;DHT22;2336;47.822;7.564;2023-07-13T05:15:57;19.70;99.90
4647;DHT22;2336;47.822;7.564;2023-07-13T05:18:25;19.60;99.90
4647;DHT22;2336;47.822;7.564;2023-07-13T05:20:59;19.70;99.90
4647;DHT22;2336;47.822;7.564;2023-07-13T05:23:26;19.70;99.90
4647;DHT22;2336;47.822;7.564;2023-07-13T05:25:53;19.70;99.90
4647;DHT22;2336;47.822;7.564;2023-07-13T05:28:21;19.70;99.90
4647;DHT22;2336;47.822;7.564;2023-07-13T05:30:48;19.70;99.90
4647;DHT22;2336;47.822;7.564;2023-07-13T05:33:15;19.70;99.90
4647;DHT22;2336;47.822;7.564;2023-07-13T05:35:42;19.70;99.90
4647;DHT22;2336;47.822;7.564;2023-07-13T05:38:10;19.70;99.90
4647;DHT22;2336;47.822;7.564;2023-07-13T05:40:37;19.70;99.90
4647;DHT22;2336;47.822;7.564;2023-07-13T05:43:04;19.80;99.90
4647;DHT22;2336;47.822;7.564;2023-07-13T05:45:30;19.90;99.90
4647;DHT22;2336;47.822;7.564;2023-07-13T05:47:57;19.90;99.90
4647;DHT22;2336;47.822;7.564;2023-07-13T05:50:25;19.90;99.90
4647;DHT22;2336;47.822;7.564;2023-07-13T05:52:52;19.90;99.90
4647;DHT22;2336;47.822;7.564;2023-07-13T05:55:20;19.90;99.90
4647;DHT22;2336;47.822;7.564;2023-07-13T05:57:47;19.90;99.90
4647;DHT22;2336;47.822;7.564;2023-07-13T06:00:15;20.00;99.90
4647;DHT22;2336;47.822;7.564;2023-07-13T06:02:42;20.00;99.90
4647;DHT22;2336;47.822;7.564;2023-07-13T06:05:09;20.10;99.90
4647;DHT22;2336;47.822;7.564;2023-07-13T06:07:36;20.10;99.90
4647;DHT22;2336;47.822;7.564;2023-07-13T06:10:03;20.10;99.90
4647;DHT22;2336;47.822;7.564;2023-07-13T06:12:31;20.10;99.90
4647;DHT22;2336;47.822;7.564;2023-07-13T06:14:58;20.10;99.90
4647;DHT22;2336;47.822;7.564;2023-07-13T06:17:25;20.10;99.90
4647;DHT22;2336;47.822;7.564;2023-07-13T06:19:51;20.10;99.90
4647;DHT22;2336;47.822;7.564;2023-07-13T06:22:18;20.20;99.90
4647;DHT22;2336;47.822;7.564;2023-07-13T06:24:45;20.30;99.90
4647;DHT22;2336;47.822;7.564;2023-07-13T06:27:12;20.30;99.90
4647;DHT22;2336;47.822;7.564;2023-07-13T06:29:40;20.30;99.90
4647;DHT22;2336;47.822;7.564;2023-07-13T06:32:08;20.30;99.90
4647;DHT22;2336;47.822;7.564;2023-07-13T06:34:35;20.40;99.90
4647;DHT22;2336;47.822;7.564;2023-07-13T06:37:02;20.50;99.90
4647;DHT22;2336;47.822;7.564;2023-07-13T06:39:28;20.50;99.90
4647;DHT22;2336;47.822;7.564;2023-07-13T06:41:55;20.50;99.90
4647;DHT22;2336;47.822;7.564;2023-07-13T06:44:22;20.50;99.90
4647;DHT22;2336;47.822;7.564;2023-07-13T06:46:50;20.50;99.90
4647;DHT22;2336;47.822;7.564;2023-07-13T06:49:16;20.60;99.90
4647;DHT22;2336;47.822;7.564;2023-07-13T06:51:43;20.60;99.90
4647;DHT22;2336;47.822;7.564;2023-07-13T06:54:10;20.60;99.90
4647;DHT22;2336;47.822;7.564;2023-07-13T06:56:36;20.60;99.90
4647;DHT22;2336;47.822;7.564;2023-07-13T06:59:03;20.70;99.90
4647;DHT22;2336;47.822;7.564;2023-07-13T07:01:30;20.70;99.90
4647;DHT22;2336;47.822;7.564;2023-07-13T07:03:58;20.70;99.90
4647;DHT22;2336;47.822;7.564;2023-07-13T07:06:25;20.80;99.90
4647;DHT22;2336;47.822;7.564;2023-07-13T07:08:52;20.80;99.90
4647;DHT22;2336;47.822;7.564;2023-07-13T07:11:21;20.90;99.90
4647;DHT22;2336;47.822;7.564;2023-07-13T07:13:48;20.90;99.90
4647;DHT22;2336;47.822;7.564;2023-07-13T07:16:15;21.00;99.90
4647;DHT22;2336;47.822;7.564;2023-07-13T07:18:42;21.00;99.90
4647;DHT22;2336;47.822;7.564;2023-07-13T07:21:11;21.00;99.90
4647;DHT22;2336;47.822;7.564;2023-07-13T07:23:38;21.10;99.90
4647;DHT22;2336;47.822;7.564;2023-07-13T07:26:05;21.20;99.90
4647;DHT22;2336;47.822;7.564;2023-07-13T07:28:34;21.30;99.90
4647;DHT22;2336;47.822;7.564;2023-07-13T07:31:01;21.30;99.90
4647;DHT22;2336;47.822;7.564;2023-07-13T07:33:28;21.30;99.90
4647;DHT22;2336;47.822;7.564;2023-07-13T07:35:54;21.40;99.90
4647;DHT22;2336;47.822;7.564;2023-07-13T07:38:22;21.50;99.90
4647;DHT22;2336;47.822;7.564;2023-07-13T07:40:49;21.50;99.90
4647;DHT22;2336;47.822;7.564;2023-07-13T07:43:16;21.50;99.90
4647;DHT22;2336;47.822;7.564;2023-07-13T07:45:44;21.60;99.90
4647;DHT22;2336;47.822;7.564;2023-07-13T07:48:11;21.70;99.90
4647;DHT22;2336;47.822;7.564;2023-07-13T07:50:38;21.70;99.90
4647;DHT22;2336;47.822;7.564;2023-07-13T07:53:06;21.80;99.90
4647;DHT22;2336;47.822;7.564;2023-07-13T07:55:37;21.80;99.90
4647;DHT22;2336;47.822;7.564;2023-07-13T07:58:05;21.90;99.90
4647;DHT22;2336;47.822;7.564;2023-07-13T08:00:32;21.90;99.90
4647;DHT22;2336;47.822;7.564;2023-07-13T08:03:01;21.80;99.90
4647;DHT22;2336;47.822;7.564;2023-07-13T08:05:28;21.90;99.90
4647;DHT22;2336;47.822;7.564;2023-07-13T08:07:55;22.00;99.90
4647;DHT22;2336;47.822;7.564;2023-07-13T08:10:21;22.10;99.90
4647;DHT22;2336;47.822;7.564;2023-07-13T08:12:49;22.20;99.90
4647;DHT22;2336;47.822;7.564;2023-07-13T08:15:17;22.30;99.90
4647;DHT22;2336;47.822;7.564;2023-07-13T08:17:46;22.30;99.90
4647;DHT22;2336;47.822;7.564;2023-07-13T08:20:13;22.30;99.90
4647;DHT22;2336;47.822;7.564;2023-07-13T08:22:39;22.40;99.90
4647;DHT22;2336;47.822;7.564;2023-07-13T08:25:07;22.50;99.90
4647;DHT22;2336;47.822;7.564;2023-07-13T08:27:34;22.50;99.90
4647;DHT22;2336;47.822;7.564;2023-07-13T08:30:03;22.60;99.90
4647;DHT22;2336;47.822;7.564;2023-07-13T08:32:31;22.60;99.90
4647;DHT22;2336;47.822;7.564;2023-07-13T08:34:58;22.80;99.90
4647;DHT22;2336;47.822;7.564;2023-07-13T08:37:24;22.80;99.90
4647;DHT22;2336;47.822;7.564;2023-07-13T08:39:51;23.00;99.90
4647;DHT22;2336;47.822;7.564;2023-07-13T08:42:30;23.20;99.90
4647;DHT22;2336;47.822;7.564;2023-07-13T08:45:14;23.20;99.90
4647;DHT22;2336;47.822;7.564;2023-07-13T08:47:47;23.30;99.90
4647;DHT22;2336;47.822;7.564;2023-07-13T08:50:17;23.40;99.90
4647;DHT22;2336;47.822;7.564;2023-07-13T08:52:46;23.60;99.90
4647;DHT22;2336;47.822;7.564;2023-07-13T08:55:15;23.70;99.90
4647;DHT22;2336;47.822;7.564;2023-07-13T08:57:44;23.70;99.90
4647;DHT22;2336;47.822;7.564;2023-07-13T09:00:15;23.70;99.90
4647;DHT22;2336;47.822;7.564;2023-07-13T09:02:45;23.70;99.90
4647;DHT22;2336;47.822;7.564;2023-07-13T09:05:14;23.80;99.90
4647;DHT22;2336;47.822;7.564;2023-07-13T09:07:55;24.00;99.20
4647;DHT22;2336;47.822;7.564;2023-07-13T09:10:28;24.10;99.90
4647;DHT22;2336;47.822;7.564;2023-07-13T09:13:03;24.10;99.90
4647;DHT22;2336;47.822;7.564;2023-07-13T09:15:37;24.10;99.40
4647;DHT22;2336;47.822;7.564;2023-07-13T09:18:10;24.00;97.90
4647;DHT22;2336;47.822;7.564;2023-07-13T09:20:44;23.90;98.90
4647;DHT22;2336;47.822;7.564;2023-07-13T09:23:14;23.90;99.50
4647;DHT22;2336;47.822;7.564;2023-07-13T09:25:42;24.00;99.60
4647;DHT22;2336;47.822;7.564;2023-07-13T09:28:12;23.80;99.90
4647;DHT22;2336;47.822;7.564;2023-07-13T09:30:49;23.90;99.90
4647;DHT22;2336;47.822;7.564;2023-07-13T09:33:19;23.90;99.90
4647;DHT22;2336;47.822;7.564;2023-07-13T09:35:46;24.00;99.90
4647;DHT22;2336;47.822;7.564;2023-07-13T09:38:15;24.00;99.90
4647;DHT22;2336;47.822;7.564;2023-07-13T09:40:49;24.20;99.90
4647;DHT22;2336;47.822;7.564;2023-07-13T09:43:21;24.20;99.90
4647;DHT22;2336;47.822;7.564;2023-07-13T09:45:49;24.50;99.90
4647;DHT22;2336;47.822;7.564;2023-07-13T09:48:17;24.50;97.80
4647;DHT22;2336;47.822;7.564;2023-07-13T09:50:45;24.50;99.70
4647;DHT22;2336;47.822;7.564;2023-07-13T09:53:13;24.50;98.70
4647;DHT22;2336;47.822;7.564;2023-07-13T09:55:41;24.40;99.10
4647;DHT22;2336;47.822;7.564;2023-07-13T09:58:12;24.20;99.90
4647;DHT22;2336;47.822;7.564;2023-07-13T10:00:40;24.20;99.30
4647;DHT22;2336;47.822;7.564;2023-07-13T10:03:23;24.00;98.50
4647;DHT22;2336;47.822;7.564;2023-07-13T10:05:51;24.10;99.90
4647;DHT22;2336;47.822;7.564;2023-07-13T10:08:21;24.50;99.70
4647;DHT22;2336;47.822;7.564;2023-07-13T10:10:54;24.50;98.40
4647;DHT22;2336;47.822;7.564;2023-07-13T10:13:30;24.40;98.90
4647;DHT22;2336;47.822;7.564;2023-07-13T10:15:59;24.40;99.30
4647;DHT22;2336;47.822;7.564;2023-07-13T10:18:29;24.40;98.70
4647;DHT22;2336;47.822;7.564;2023-07-13T10:21:09;24.50;98.90
4647;DHT22;2336;47.822;7.564;2023-07-13T10:23:37;24.50;97.70
4647;DHT22;2336;47.822;7.564;2023-07-13T10:26:05;24.60;96.30
4647;DHT22;2336;47.822;7.564;2023-07-13T10:28:37;24.60;95.20
4647;DHT22;2336;47.822;7.564;2023-07-13T10:31:08;24.60;96.50
4647;DHT22;2336;47.822;7.564;2023-07-13T10:33:44;24.80;96.80
4647;DHT22;2336;47.822;7.564;2023-07-13T10:36:20;24.70;95.90
4647;DHT22;2336;47.822;7.564;2023-07-13T10:38:50;24.90;96.00
4647;DHT22;2336;47.822;7.564;2023-07-13T10:41:20;25.00;96.50
4647;DHT22;2336;47.822;7.564;2023-07-13T10:43:49;25.00;94.60
4647;DHT22;2336;47.822;7.564;2023-07-13T10:46:19;25.10;94.30
4647;DHT22;2336;47.822;7.564;2023-07-13T10:48:50;25.10;92.40
4647;DHT22;2336;47.822;7.564;2023-07-13T10:51:18;25.20;92.90
4647;DHT22;2336;47.822;7.564;2023-07-13T10:53:48;25.10;92.20
4647;DHT22;2336;47.822;7.564;2023-07-13T10:56:34;25.40;93.00
4647;DHT22;2336;47.822;7.564;2023-07-13T10:59:09;25.30;92.20
4647;DHT22;2336;47.822;7.564;2023-07-13T11:01:46;25.40;92.90
4647;DHT22;2336;47.822;7.564;2023-07-13T11:04:20;25.10;93.00
4647;DHT22;2336;47.822;7.564;2023-07-13T11:06:49;25.00;91.80
4647;DHT22;2336;47.822;7.564;2023-07-13T11:09:35;25.10;93.60
4647;DHT22;2336;47.822;7.564;2023-07-13T11:12:07;25.30;91.30
4647;DHT22;2336;47.822;7.564;2023-07-13T11:14:36;25.30;92.10
4647;DHT22;2336;47.822;7.564;2023-07-13T11:17:33;25.40;92.40
4647;DHT22;2336;47.822;7.564;2023-07-13T11:20:23;25.50;91.30
4647;DHT22;2336;47.822;7.564;2023-07-13T11:22:52;25.60;92.70
4647;DHT22;2336;47.822;7.564;2023-07-13T11:25:28;25.80;91.90
4647;DHT22;2336;47.822;7.564;2023-07-13T11:28:13;25.90;91.60
4647;DHT22;2336;47.822;7.564;2023-07-13T11:30:43;26.00;90.40
4647;DHT22;2336;47.822;7.564;2023-07-13T11:33:15;26.00;90.70
4647;DHT22;2336;47.822;7.564;2023-07-13T11:35:49;26.10;91.40
4647;DHT22;2336;47.822;7.564;2023-07-13T11:38:20;26.20;91.80
4647;DHT22;2336;47.822;7.564;2023-07-13T11:40:48;26.40;90.50
4647;DHT22;2336;47.822;7.564;2023-07-13T11:43:16;26.20;89.80
4647;DHT22;2336;47.822;7.564;2023-07-13T11:45:44;26.00;91.20
4647;DHT22;2336;47.822;7.564;2023-07-13T11:48:22;25.80;89.80
4647;DHT22;2336;47.822;7.564;2023-07-13T11:50:56;25.80;91.50
4647;DHT22;2336;47.822;7.564;2023-07-13T11:53:26;25.80;91.00
4647;DHT22;2336;47.822;7.564;2023-07-13T11:55:53;26.00;91.50
4647;DHT22;2336;47.822;7.564;2023-07-13T11:58:24;26.20;91.70
4647;DHT22;2336;47.822;7.564;2023-07-13T12:00:52;26.30;89.40
4647;DHT22;2336;47.822;7.564;2023-07-13T12:03:21;26.40;91.50
4647;DHT22;2336;47.822;7.564;2023-07-13T12:05:59;26.50;90.60
4647;DHT22;2336;47.822;7.564;2023-07-13T12:08:26;26.50;91.30
4647;DHT22;2336;47.822;7.564;2023-07-13T12:10:58;26.70;91.40
4647;DHT22;2336;47.822;7.564;2023-07-13T12:13:26;26.80;91.50
4647;DHT22;2336;47.822;7.564;2023-07-13T12:15:54;26.80;90.60
4647;DHT22;2336;47.822;7.564;2023-07-13T12:18:28;26.80;89.50
4647;DHT22;2336;47.822;7.564;2023-07-13T12:20:58;26.50;87.50
4647;DHT22;2336;47.822;7.564;2023-07-13T12:23:29;26.20;89.20
4647;DHT22;2336;47.822;7.564;2023-07-13T12:25:57;26.60;88.70
4647;DHT22;2336;47.822;7.564;2023-07-13T12:28:32;26.80;87.90
4647;DHT22;2336;47.822;7.564;2023-07-13T12:31:00;26.90;90.10
4647;DHT22;2336;47.822;7.564;2023-07-13T12:33:28;26.90;90.60
4647;DHT22;2336;47.822;7.564;2023-07-13T12:35:59;26.60;87.50
4647;DHT22;2336;47.822;7.564;2023-07-13T12:38:27;26.80;90.40
4647;DHT22;2336;47.822;7.564;2023-07-13T12:40:54;26.90;87.00
4647;DHT22;2336;47.822;7.564;2023-07-13T12:43:22;27.20;89.10
4647;DHT22;2336;47.822;7.564;2023-07-13T12:45:57;27.40;88.90
4647;DHT22;2336;47.822;7.564;2023-07-13T12:48:24;27.40;85.70
4647;DHT22;2336;47.822;7.564;2023-07-13T12:50:53;27.10;83.30
4647;DHT22;2336;47.822;7.564;2023-07-13T12:53:23;27.20;87.30
4647;DHT22;2336;47.822;7.564;2023-07-13T12:55:56;27.40;84.70
4647;DHT22;2336;47.822;7.564;2023-07-13T12:58:26;27.40;84.60
4647;DHT22;2336;47.822;7.564;2023-07-13T13:00:54;27.50;86.50
4647;DHT22;2336;47.822;7.564;2023-07-13T13:03:27;27.60;84.80
4647;DHT22;2336;47.822;7.564;2023-07-13T13:05:58;27.70;83.20
4647;DHT22;2336;47.822;7.564;2023-07-13T13:08:27;27.40;80.10
4647;DHT22;2336;47.822;7.564;2023-07-13T13:10:54;27.20;78.10
4647;DHT22;2336;47.822;7.564;2023-07-13T13:13:21;27.20;85.10
4647;DHT22;2336;47.822;7.564;2023-07-13T13:15:47;27.30;81.90
4647;DHT22;2336;47.822;7.564;2023-07-13T13:18:18;27.30;82.70
4647;DHT22;2336;47.822;7.564;2023-07-13T13:20:46;27.30;79.80
4647;DHT22;2336;47.822;7.564;2023-07-13T13:23:13;27.10;81.20
4647;DHT22;2336;47.822;7.564;2023-07-13T13:25:44;27.20;82.00
4647;DHT22;2336;47.822;7.564;2023-07-13T13:28:14;27.20;79.80
4647;DHT22;2336;47.822;7.564;2023-07-13T13:30:42;27.40;79.30
4647;DHT22;2336;47.822;7.564;2023-07-13T13:33:11;27.40;80.20
4647;DHT22;2336;47.822;7.564;2023-07-13T13:35:39;27.10;76.90
4647;DHT22;2336;47.822;7.564;2023-07-13T13:38:11;26.90;78.10
4647;DHT22;2336;47.822;7.564;2023-07-13T13:40:40;27.10;82.90
4647;DHT22;2336;47.822;7.564;2023-07-13T13:43:26;27.30;81.00
4647;DHT22;2336;47.822;7.564;2023-07-13T13:45:56;27.40;78.60
4647;DHT22;2336;47.822;7.564;2023-07-13T13:48:29;27.50;79.10
4647;DHT22;2336;47.822;7.564;2023-07-13T13:50:57;27.60;77.30
4647;DHT22;2336;47.822;7.564;2023-07-13T13:53:24;27.40;74.50
4647;DHT22;2336;47.822;7.564;2023-07-13T13:55:51;27.40;75.80
4647;DHT22;2336;47.822;7.564;2023-07-13T13:58:18;27.40;75.00
4647;DHT22;2336;47.822;7.564;2023-07-13T14:00:47;27.50;76.20
4647;DHT22;2336;47.822;7.564;2023-07-13T14:03:16;27.60;77.30
4647;DHT22;2336;47.822;7.564;2023-07-13T14:05:44;27.60;76.10
4647;DHT22;2336;47.822;7.564;2023-07-13T14:08:14;27.50;75.30
4647;DHT22;2336;47.822;7.564;2023-07-13T14:10:41;27.40;76.80
4647;DHT22;2336;47.822;7.564;2023-07-13T14:13:16;27.50;77.40
4647;DHT22;2336;47.822;7.564;2023-07-13T14:15:45;27.70;75.90
4647;DHT22;2336;47.822;7.564;2023-07-13T14:18:13;27.60;76.70
4647;DHT22;2336;47.822;7.564;2023-07-13T14:20:43;27.70;77.00
4647;DHT22;2336;47.822;7.564;2023-07-13T14:23:11;27.70;75.20
4647;DHT22;2336;47.822;7.564;2023-07-13T14:25:38;27.70;76.00
4647;DHT22;2336;47.822;7.564;2023-07-13T14:28:24;27.80;76.40
4647;DHT22;2336;47.822;7.564;2023-07-13T14:30:53;27.90;74.70
4647;DHT22;2336;47.822;7.564;2023-07-13T14:33:20;27.80;73.90
4647;DHT22;2336;47.822;7.564;2023-07-13T14:35:48;27.50;74.60
4647;DHT22;2336;47.822;7.564;2023-07-13T14:38:17;27.50;76.20
4647;DHT22;2336;47.822;7.564;2023-07-13T14:40:45;27.50;72.90
4647;DHT22;2336;47.822;7.564;2023-07-13T14:43:14;27.40;73.80
4647;DHT22;2336;47.822;7.564;2023-07-13T14:45:44;27.40;74.60
4647;DHT22;2336;47.822;7.564;2023-07-13T14:48:18;27.30;77.10
4647;DHT22;2336;47.822;7.564;2023-07-13T14:50:45;27.30;77.80
4647;DHT22;2336;47.822;7.564;2023-07-13T14:53:13;27.30;74.40
4647;DHT22;2336;47.822;7.564;2023-07-13T14:55:40;27.40;75.00
4647;DHT22;2336;47.822;7.564;2023-07-13T14:58:08;27.10;71.40
4647;DHT22;2336;47.822;7.564;2023-07-13T15:00:35;27.10;73.50
4647;DHT22;2336;47.822;7.564;2023-07-13T15:03:03;27.00;73.70
4647;DHT22;2336;47.822;7.564;2023-07-13T15:05:33;26.90;76.60
4647;DHT22;2336;47.822;7.564;2023-07-13T15:08:02;26.90;76.10
4647;DHT22;2336;47.822;7.564;2023-07-13T15:10:30;26.90;76.50
4647;DHT22;2336;47.822;7.564;2023-07-13T15:12:59;26.80;73.70
4647;DHT22;2336;47.822;7.564;2023-07-13T15:15:28;26.70;74.80
4647;DHT22;2336;47.822;7.564;2023-07-13T15:17:56;26.70;73.00
4647;DHT22;2336;47.822;7.564;2023-07-13T15:20:26;26.60;72.40
4647;DHT22;2336;47.822;7.564;2023-07-13T15:22:55;26.60;72.70
4647;DHT22;2336;47.822;7.564;2023-07-13T15:25:24;26.60;74.20
4647;DHT22;2336;47.822;7.564;2023-07-13T15:27:51;26.50;71.40
4647;DHT22;2336;47.822;7.564;2023-07-13T15:30:18;26.50;72.50
4647;DHT22;2336;47.822;7.564;2023-07-13T15:32:46;26.50;71.50
4647;DHT22;2336;47.822;7.564;2023-07-13T15:35:18;26.60;71.20
4647;DHT22;2336;47.822;7.564;2023-07-13T15:37:45;26.60;71.40
4647;DHT22;2336;47.822;7.564;2023-07-13T15:40:14;26.60;71.30
4647;DHT22;2336;47.822;7.564;2023-07-13T15:42:41;26.70;71.00
4647;DHT22;2336;47.822;7.564;2023-07-13T15:45:20;26.80;70.70
4647;DHT22;2336;47.822;7.564;2023-07-13T15:47:48;26.90;68.90
4647;DHT22;2336;47.822;7.564;2023-07-13T15:50:17;27.00;70.10
4647;DHT22;2336;47.822;7.564;2023-07-13T15:52:47;27.10;71.20
4647;DHT22;2336;47.822;7.564;2023-07-13T15:55:15;27.30;71.00
4647;DHT22;2336;47.822;7.564;2023-07-13T15:57:47;27.30;67.40
4647;DHT22;2336;47.822;7.564;2023-07-13T16:00:18;27.30;68.70
4647;DHT22;2336;47.822;7.564;2023-07-13T16:02:46;27.20;67.00
4647;DHT22;2336;47.822;7.564;2023-07-13T16:05:13;27.20;67.40
4647;DHT22;2336;47.822;7.564;2023-07-13T16:07:41;27.20;67.40
4647;DHT22;2336;47.822;7.564;2023-07-13T16:10:15;27.20;64.70
4647;DHT22;2336;47.822;7.564;2023-07-13T16:12:42;27.20;65.10
4647;DHT22;2336;47.822;7.564;2023-07-13T16:15:13;27.20;67.80
4647;DHT22;2336;47.822;7.564;2023-07-13T16:17:41;27.40;66.90